createdAt,value
2019-03-10T00:00:42.379Z,85.91
2019-03-10T00:01:42.287Z,86.68
2019-03-10T00:02:42.232Z,86.68
2019-03-10T00:03:42.180Z,84.78
2019-03-10T00:04:42.119Z,84.30
2019-03-10T00:05:42.103Z,84.21
2019-03-10T00:06:42.046Z,83.54
2019-03-10T00:07:41.954Z,84.21
2019-03-10T00:08:41.900Z,84.21
2019-03-10T00:09:41.842Z,84.78
2019-03-10T00:10:41.788Z,85.72
2019-03-10T00:11:41.771Z,87.24
2019-03-10T00:12:41.677Z,87.34
2019-03-10T00:13:41.626Z,87.62
2019-03-10T00:14:41.563Z,87.24
2019-03-10T00:15:41.545Z,88.86
2019-03-10T00:16:41.455Z,87.72
2019-03-10T00:17:41.429Z,88.01
2019-03-10T00:18:41.344Z,88.20
2019-03-10T00:19:41.289Z,87.91
2019-03-10T00:20:41.232Z,90.19
2019-03-10T00:21:41.208Z,90.00
2019-03-10T00:22:41.128Z,88.86
2019-03-10T00:23:41.063Z,88.01
2019-03-10T00:24:41.011Z,85.63
2019-03-10T00:25:40.962Z,88.01
2019-03-10T00:26:40.943Z,89.81
2019-03-10T00:27:40.846Z,90.76
2019-03-10T00:28:40.789Z,87.34
2019-03-10T00:29:40.730Z,87.34
2019-03-10T00:30:40.678Z,88.20
2019-03-10T00:31:40.664Z,86.87
2019-03-10T00:32:40.571Z,86.87
2019-03-10T00:33:40.506Z,89.05
2019-03-10T00:34:40.453Z,88.86
2019-03-10T00:35:40.403Z,88.67
2019-03-10T00:36:40.375Z,88.48
2019-03-10T00:37:40.332Z,88.86
2019-03-10T00:38:40.231Z,89.05
2019-03-10T00:39:40.176Z,88.01
2019-03-10T00:40:40.120Z,87.62
2019-03-10T00:41:40.064Z,86.01
2019-03-10T00:42:40.062Z,85.53
2019-03-10T00:43:39.955Z,86.20
2019-03-10T00:44:39.898Z,85.44
2019-03-10T00:45:39.845Z,85.82
2019-03-10T00:46:39.788Z,85.63
2019-03-10T00:47:39.788Z,84.87
2019-03-10T00:48:39.680Z,84.74
2019-03-10T00:49:39.620Z,84.17
2019-03-10T00:50:39.562Z,88.20
2019-03-10T00:51:39.566Z,88.29
2019-03-10T00:52:39.486Z,86.30
2019-03-10T00:53:39.395Z,87.62
2019-03-10T00:54:39.342Z,88.48
2019-03-10T00:55:39.286Z,88.48
2019-03-10T00:56:39.231Z,87.43
2019-03-10T00:57:39.198Z,86.49
2019-03-10T00:58:39.120Z,87.43
2019-03-10T00:59:39.063Z,86.68
2019-03-10T01:00:39.010Z,87.82
2019-03-10T01:01:38.989Z,89.14
2019-03-10T01:02:38.897Z,88.76
2019-03-10T01:03:38.842Z,87.91
2019-03-10T01:04:38.783Z,86.68
2019-03-10T01:05:38.731Z,85.72
2019-03-10T01:06:38.700Z,85.35
2019-03-10T01:07:38.616Z,86.87
2019-03-10T01:08:38.603Z,88.01
2019-03-10T01:09:38.545Z,88.76
2019-03-10T01:10:38.449Z,88.95
2019-03-10T01:11:38.416Z,86.49
2019-03-10T01:12:38.342Z,85.44
2019-03-10T01:13:38.286Z,85.82
2019-03-10T01:14:38.276Z,85.44
2019-03-10T01:15:38.173Z,85.63
2019-03-10T01:16:38.119Z,85.63
2019-03-10T01:17:38.061Z,86.01
2019-03-10T01:18:38.005Z,84.74
2019-03-10T01:19:37.980Z,84.68
2019-03-10T01:20:37.897Z,84.40
2019-03-10T01:21:37.837Z,84.78
2019-03-10T01:22:37.835Z,84.07
2019-03-10T01:23:37.729Z,83.69
2019-03-10T01:24:37.671Z,83.88
2019-03-10T01:25:37.611Z,83.40
2019-03-10T01:26:37.558Z,86.44
2019-03-10T01:27:37.538Z,85.49
2019-03-10T01:28:37.464Z,86.01
2019-03-10T01:29:37.388Z,85.21
2019-03-10T01:30:37.367Z,84.74
2019-03-10T01:31:37.283Z,83.69
2019-03-10T01:32:37.223Z,84.07
2019-03-10T01:33:37.210Z,84.74
2019-03-10T01:34:37.114Z,84.07
2019-03-10T01:35:37.058Z,83.12
2019-03-10T01:36:37.000Z,83.78
2019-03-10T01:37:36.945Z,85.40
2019-03-10T01:38:36.922Z,85.68
2019-03-10T01:39:36.835Z,84.55
2019-03-10T01:40:36.786Z,84.26
2019-03-10T01:41:36.721Z,85.59
2019-03-10T01:42:36.666Z,85.40
2019-03-10T01:43:36.647Z,83.31
2019-03-10T01:44:36.583Z,83.12
2019-03-10T01:45:36.502Z,83.50
2019-03-10T01:46:36.444Z,83.40
2019-03-10T01:47:36.390Z,84.45
2019-03-10T01:48:36.368Z,84.07
2019-03-10T01:49:36.315Z,83.69
2019-03-10T01:50:36.237Z,83.31
2019-03-10T01:51:36.165Z,85.59
2019-03-10T01:52:36.111Z,85.49
2019-03-10T01:53:36.057Z,84.78
2019-03-10T01:54:36.081Z,85.35
2019-03-10T01:55:35.982Z,85.44
2019-03-10T01:56:35.890Z,84.11
2019-03-10T01:57:35.834Z,86.20
2019-03-10T01:58:35.774Z,89.62
2019-03-10T01:59:35.723Z,88.67
2019-03-10T02:00:35.697Z,88.39
2019-03-10T02:01:35.607Z,91.04
2019-03-10T02:02:35.558Z,90.09
2019-03-10T02:03:35.498Z,89.53
2019-03-10T02:04:35.443Z,88.01
2019-03-10T02:05:35.426Z,88.76
2019-03-10T02:06:35.333Z,89.33
2019-03-10T02:07:35.275Z,88.76
2019-03-10T02:08:35.218Z,89.05
2019-03-10T02:09:35.162Z,90.28
2019-03-10T02:10:35.149Z,89.33
2019-03-10T02:11:35.052Z,92.28
2019-03-10T02:12:34.998Z,91.42
2019-03-10T02:13:34.956Z,92.18
2019-03-10T02:14:34.890Z,91.04
2019-03-10T02:15:34.861Z,93.89
2019-03-10T02:16:34.779Z,93.60
2019-03-10T02:17:34.719Z,90.85
2019-03-10T02:18:34.700Z,91.80
2019-03-10T02:19:34.616Z,93.60
2019-03-10T02:20:34.551Z,91.61
2019-03-10T02:21:34.501Z,91.80
2019-03-10T02:22:34.439Z,92.75
2019-03-10T02:23:34.415Z,90.00
2019-03-10T02:24:34.330Z,92.47
2019-03-10T02:25:34.274Z,89.43
2019-03-10T02:26:34.216Z,90.19
2019-03-10T02:27:34.161Z,92.28
2019-03-10T02:28:34.146Z,93.23
2019-03-10T02:29:34.050Z,90.47
2019-03-10T02:30:33.995Z,88.95
2019-03-10T02:31:33.938Z,89.90
2019-03-10T02:32:33.883Z,90.57
2019-03-10T02:33:33.879Z,92.85
2019-03-10T02:34:33.773Z,92.28
2019-03-10T02:35:33.716Z,98.54
2019-03-10T02:36:33.660Z,97.31
2019-03-10T02:37:33.603Z,96.26
2019-03-10T02:38:33.581Z,94.18
2019-03-10T02:39:33.490Z,93.32
2019-03-10T02:40:33.435Z,92.47
2019-03-10T02:41:33.381Z,95.22
2019-03-10T02:42:33.330Z,95.70
2019-03-10T02:43:33.302Z,95.12
2019-03-10T02:44:33.219Z,92.47
2019-03-10T02:45:33.158Z,97.41
2019-03-10T02:46:33.137Z,94.56
2019-03-10T02:47:33.046Z,97.50
2019-03-10T02:48:32.993Z,99.99
2019-03-10T02:49:32.938Z,99.99
2019-03-10T02:50:32.912Z,99.99
2019-03-10T02:51:32.828Z,99.77
2019-03-10T02:52:32.766Z,97.41
2019-03-10T02:53:32.740Z,99.68
2019-03-10T02:54:32.660Z,99.11
2019-03-10T02:55:32.620Z,97.41
2019-03-10T02:56:32.546Z,98.92
2019-03-10T02:57:32.494Z,98.16
2019-03-10T02:58:32.476Z,97.41
2019-03-10T02:59:32.383Z,97.97
2019-03-10T03:00:32.325Z,95.51
2019-03-10T03:01:32.269Z,97.02
2019-03-10T03:02:32.211Z,98.07
2019-03-10T03:03:32.190Z,99.97
2019-03-10T03:04:32.103Z,98.54
2019-03-10T03:05:32.071Z,99.99
2019-03-10T03:06:31.991Z,99.99
2019-03-10T03:07:31.935Z,99.97
2019-03-10T03:08:31.910Z,99.40
2019-03-10T03:09:31.824Z,99.40
2019-03-10T03:10:31.768Z,98.35
2019-03-10T03:11:31.712Z,98.54
2019-03-10T03:12:31.653Z,98.26
2019-03-10T03:13:31.630Z,97.41
2019-03-10T03:14:31.543Z,99.99
2019-03-10T03:15:31.503Z,99.02
2019-03-10T03:16:31.435Z,99.99
2019-03-10T03:17:31.378Z,99.99
2019-03-10T03:18:31.351Z,99.99
2019-03-10T03:19:31.275Z,99.99
2019-03-10T03:20:31.214Z,99.99
2019-03-10T03:21:42.495Z,99.99
2019-03-10T03:22:31.115Z,99.99
2019-03-10T03:23:31.082Z,99.99
2019-03-10T03:24:30.988Z,99.99
2019-03-10T03:25:30.932Z,99.99
2019-03-10T03:26:30.881Z,99.99
2019-03-10T03:27:30.852Z,99.99
2019-03-10T03:28:30.766Z,99.99
2019-03-10T03:29:30.709Z,99.99
2019-03-10T03:30:30.663Z,99.99
2019-03-10T03:31:30.630Z,99.99
2019-03-10T03:32:30.550Z,99.99
2019-03-10T03:33:30.535Z,99.99
2019-03-10T03:34:30.458Z,99.99
2019-03-10T03:35:30.378Z,99.99
2019-03-10T03:36:30.322Z,99.99
2019-03-10T03:37:30.271Z,99.99
2019-03-10T03:38:30.241Z,99.99
2019-03-10T03:39:30.154Z,99.99
2019-03-10T03:40:30.099Z,99.99
2019-03-10T03:41:30.040Z,99.99
2019-03-10T03:42:30.077Z,99.99
2019-03-10T03:43:29.995Z,99.99
2019-03-10T03:44:29.916Z,99.99
2019-03-10T03:45:29.820Z,99.99
2019-03-10T03:46:29.765Z,99.99
2019-03-10T03:47:29.713Z,99.99
2019-03-10T03:48:29.653Z,99.99
2019-03-10T03:49:29.633Z,99.99
2019-03-10T03:50:29.542Z,99.99
2019-03-10T03:51:29.498Z,99.99
2019-03-10T03:52:29.432Z,99.99
2019-03-10T03:53:29.412Z,99.99
2019-03-10T03:54:29.345Z,99.99
2019-03-10T03:55:29.266Z,99.99
2019-03-10T03:56:29.210Z,99.99
2019-03-10T03:57:29.154Z,99.99
2019-03-10T03:58:29.139Z,99.99
2019-03-10T03:59:29.046Z,99.99
2019-03-10T04:00:28.991Z,99.99
2019-03-10T04:01:28.931Z,99.99
2019-03-10T04:02:28.877Z,99.99
2019-03-10T04:03:28.849Z,99.99
2019-03-10T04:04:28.767Z,99.99
2019-03-10T04:05:28.710Z,99.99
2019-03-10T04:06:28.655Z,99.99
2019-03-10T04:07:28.621Z,99.99
2019-03-10T04:08:28.543Z,99.99
2019-03-10T04:09:28.518Z,99.99
2019-03-10T04:10:28.430Z,99.99
2019-03-10T04:11:28.377Z,99.99
2019-03-10T04:12:28.320Z,99.99
2019-03-10T04:13:28.296Z,99.99
2019-03-10T04:14:28.209Z,99.99
2019-03-10T04:15:28.159Z,99.99
2019-03-10T04:16:28.128Z,99.99
2019-03-10T04:17:28.046Z,99.99
2019-03-10T04:18:27.995Z,99.99
2019-03-10T04:19:27.974Z,99.99
2019-03-10T04:20:27.875Z,99.99
2019-03-10T04:21:27.819Z,99.99
2019-03-10T04:22:27.793Z,99.99
2019-03-10T04:23:27.705Z,99.99
2019-03-10T04:24:27.651Z,99.99
2019-03-10T04:25:27.629Z,99.99
2019-03-10T04:26:27.539Z,99.99
2019-03-10T04:27:27.487Z,99.99
2019-03-10T04:28:27.430Z,99.99
2019-03-10T04:29:27.409Z,99.99
2019-03-10T04:30:27.319Z,99.99
2019-03-10T04:31:27.263Z,99.99
2019-03-10T04:32:27.206Z,99.99
2019-03-10T04:33:27.180Z,99.99
2019-03-10T04:34:27.097Z,99.99
2019-03-10T04:35:27.073Z,99.99
2019-03-10T04:36:26.986Z,99.99
2019-03-10T04:37:26.927Z,99.99
2019-03-10T04:38:26.872Z,99.99
2019-03-10T04:39:26.849Z,99.99
2019-03-10T04:40:26.762Z,99.99
2019-03-10T04:41:26.706Z,99.99
2019-03-10T04:42:26.688Z,99.99
2019-03-10T04:43:26.595Z,99.99
2019-03-10T04:44:26.545Z,99.99
2019-03-10T04:45:26.483Z,99.99
2019-03-10T04:46:26.443Z,99.99
2019-03-10T04:47:26.414Z,99.99
2019-03-10T04:48:26.322Z,99.99
2019-03-10T04:49:26.260Z,99.99
2019-03-10T04:50:26.207Z,99.99
2019-03-10T04:51:26.155Z,99.99
2019-03-10T04:52:26.129Z,99.99
2019-03-10T04:53:26.046Z,99.99
2019-03-10T04:54:25.986Z,99.99
2019-03-10T04:55:25.959Z,99.30
2019-03-10T04:56:25.876Z,97.97
2019-03-10T04:57:25.815Z,98.92
2019-03-10T04:58:25.791Z,96.17
2019-03-10T04:59:25.704Z,96.17
2019-03-10T05:00:25.657Z,96.26
2019-03-10T05:01:25.596Z,95.12
2019-03-10T05:02:25.538Z,94.27
2019-03-10T05:03:25.513Z,94.93
2019-03-10T05:04:25.428Z,95.03
2019-03-10T05:05:25.400Z,95.51
2019-03-10T05:06:25.316Z,93.89
2019-03-10T05:07:25.292Z,92.66
2019-03-10T05:08:25.204Z,93.13
2019-03-10T05:09:25.153Z,94.08
2019-03-10T05:10:25.359Z,93.51
2019-03-10T05:11:25.038Z,90.09
2019-03-10T05:12:25.021Z,89.62
2019-03-10T05:13:24.930Z,91.09
2019-03-10T05:14:24.870Z,90.81
2019-03-10T05:15:24.817Z,91.38
2019-03-10T05:16:24.759Z,91.19
2019-03-10T05:17:24.736Z,91.19
2019-03-10T05:18:24.647Z,91.38
2019-03-10T05:19:24.595Z,91.75
2019-03-10T05:20:24.538Z,90.05
2019-03-10T05:21:24.512Z,88.62
2019-03-10T05:22:24.425Z,85.87
2019-03-10T05:23:24.401Z,85.87
2019-03-10T05:24:24.315Z,87.58
2019-03-10T05:25:24.264Z,87.39
2019-03-10T05:26:24.207Z,88.24
2019-03-10T05:27:24.146Z,88.15
2019-03-10T05:28:24.131Z,88.91
2019-03-10T05:29:24.035Z,87.49
2019-03-10T05:30:23.987Z,86.54
2019-03-10T05:31:23.925Z,86.25
2019-03-10T05:32:23.871Z,87.11
2019-03-10T05:33:23.846Z,87.49
2019-03-10T05:34:23.763Z,87.20
2019-03-10T05:35:23.699Z,84.92
2019-03-10T05:36:23.670Z,83.31
2019-03-10T05:37:23.591Z,82.08
2019-03-10T05:38:23.533Z,81.60
2019-03-10T05:39:23.487Z,79.52
2019-03-10T05:40:23.472Z,80.56
2019-03-10T05:41:23.367Z,80.18
2019-03-10T05:42:23.315Z,79.61
2019-03-10T05:43:23.261Z,80.27
2019-03-10T05:44:23.203Z,80.27
2019-03-10T05:45:23.181Z,79.14
2019-03-10T05:46:23.092Z,79.23
2019-03-10T05:47:23.038Z,79.23
2019-03-10T05:48:22.979Z,78.28
2019-03-10T05:49:22.952Z,78.09
2019-03-10T05:50:22.907Z,74.96
2019-03-10T05:51:22.816Z,77.52
2019-03-10T05:52:22.757Z,79.52
2019-03-10T05:53:22.702Z,79.71
2019-03-10T05:54:22.646Z,79.99
2019-03-10T05:55:22.632Z,76.95
2019-03-10T05:56:22.533Z,77.43
2019-03-10T05:57:22.477Z,78.09
2019-03-10T05:58:22.424Z,77.90
2019-03-10T05:59:22.367Z,78.66
2019-03-10T06:00:22.344Z,77.71
2019-03-10T06:01:22.285Z,74.20
2019-03-10T06:02:22.227Z,74.39
2019-03-10T06:03:22.143Z,72.40
2019-03-10T06:04:22.093Z,71.55
2019-03-10T06:05:22.032Z,71.55
2019-03-10T06:06:22.019Z,71.26
2019-03-10T06:07:21.925Z,69.93
2019-03-10T06:08:21.865Z,70.03
2019-03-10T06:09:21.809Z,69.17
2019-03-10T06:10:21.765Z,70.21
2019-03-10T06:11:21.729Z,70.31
2019-03-10T06:12:21.643Z,70.78
2019-03-10T06:13:21.585Z,69.74
2019-03-10T06:14:21.531Z,70.98
2019-03-10T06:15:21.474Z,70.12
2019-03-10T06:16:21.454Z,71.92
2019-03-10T06:17:21.653Z,72.11
2019-03-10T06:18:21.361Z,71.07
2019-03-10T06:19:21.250Z,69.65
2019-03-10T06:20:21.197Z,73.54
2019-03-10T06:21:21.148Z,73.54
2019-03-10T06:22:21.082Z,72.88
2019-03-10T06:23:21.057Z,71.73
2019-03-10T06:24:20.971Z,70.50
2019-03-10T06:25:20.918Z,70.12
2019-03-10T06:26:20.856Z,68.89
2019-03-10T06:27:20.802Z,69.84
2019-03-10T06:28:20.775Z,69.74
2019-03-10T06:29:20.690Z,68.51
2019-03-10T06:30:20.639Z,69.08
2019-03-10T06:31:20.576Z,68.89
2019-03-10T06:32:20.526Z,67.85
2019-03-10T06:33:20.509Z,67.85
2019-03-10T06:34:20.406Z,67.08
2019-03-10T06:35:20.351Z,67.08
2019-03-10T06:36:20.297Z,66.71
2019-03-10T06:37:20.239Z,67.37
2019-03-10T06:38:20.228Z,66.23
2019-03-10T06:39:20.125Z,67.18
2019-03-10T06:40:20.070Z,65.95
2019-03-10T06:41:20.016Z,65.85
2019-03-10T06:42:19.962Z,66.23
2019-03-10T06:43:19.936Z,65.75
2019-03-10T06:44:21.104Z,65.66
2019-03-10T06:45:19.787Z,65.95
2019-03-10T06:46:19.728Z,65.95
2019-03-10T06:47:19.675Z,63.86
2019-03-10T06:48:19.617Z,64.05
2019-03-10T06:49:19.603Z,63.95
2019-03-10T06:50:19.503Z,63.39
2019-03-10T06:51:19.449Z,62.72
2019-03-10T06:52:19.394Z,62.24
2019-03-10T06:53:19.335Z,61.68
2019-03-10T06:54:19.309Z,60.92
2019-03-10T06:55:19.262Z,60.73
2019-03-10T06:56:19.170Z,61.49
2019-03-10T06:57:19.111Z,60.82
2019-03-10T06:58:19.054Z,61.39
2019-03-10T06:59:18.996Z,62.34
2019-03-10T07:00:18.978Z,62.15
2019-03-10T07:01:18.884Z,61.49
2019-03-10T07:02:18.828Z,61.58
2019-03-10T07:03:18.819Z,60.63
2019-03-10T07:04:18.726Z,60.25
2019-03-10T07:05:18.662Z,60.63
2019-03-10T07:06:18.602Z,59.59
2019-03-10T07:07:18.545Z,58.83
2019-03-10T07:08:18.520Z,59.68
2019-03-10T07:09:18.457Z,59.40
2019-03-10T07:10:18.378Z,59.78
2019-03-10T07:11:18.335Z,58.92
2019-03-10T07:12:18.264Z,58.64
2019-03-10T07:13:18.209Z,58.17
2019-03-10T07:14:18.180Z,56.36
2019-03-10T07:15:18.106Z,57.03
2019-03-10T07:16:18.039Z,57.50
2019-03-10T07:17:17.979Z,57.50
2019-03-10T07:18:17.925Z,57.31
2019-03-10T07:19:17.899Z,57.21
2019-03-10T07:20:17.814Z,57.12
2019-03-10T07:21:17.760Z,57.79
2019-03-10T07:22:17.698Z,58.54
2019-03-10T07:23:17.645Z,58.73
2019-03-10T07:24:17.621Z,58.54
2019-03-10T07:25:17.534Z,58.17
2019-03-10T07:26:17.471Z,57.98
2019-03-10T07:27:17.416Z,57.31
2019-03-10T07:28:17.358Z,57.03
2019-03-10T07:29:17.350Z,57.03
2019-03-10T07:30:17.245Z,56.93
2019-03-10T07:31:17.193Z,56.55
2019-03-10T07:32:17.133Z,56.36
2019-03-10T07:33:17.077Z,54.75
2019-03-10T07:34:17.077Z,54.58
2019-03-10T07:35:16.963Z,55.32
2019-03-10T07:36:16.907Z,54.78
2019-03-10T07:37:16.886Z,55.22
2019-03-10T07:38:16.796Z,54.18
2019-03-10T07:39:16.738Z,54.68
2019-03-10T07:40:16.683Z,55.06
2019-03-10T07:41:16.626Z,55.63
2019-03-10T07:42:16.624Z,55.16
2019-03-10T07:43:16.517Z,55.25
2019-03-10T07:44:16.454Z,55.54
2019-03-10T07:45:16.401Z,55.54
2019-03-10T07:46:16.342Z,55.54
2019-03-10T07:47:16.332Z,55.82
2019-03-10T07:48:16.231Z,55.63
2019-03-10T07:49:18.065Z,56.49
2019-03-10T07:50:16.125Z,55.91
2019-03-10T07:51:16.064Z,55.25
2019-03-10T07:52:20.229Z,55.54
2019-03-10T07:53:15.996Z,54.39
2019-03-10T07:54:15.927Z,53.35
2019-03-10T07:55:15.836Z,53.54
2019-03-10T07:56:15.782Z,53.26
2019-03-10T07:57:15.729Z,52.78
2019-03-10T07:58:15.772Z,52.69
2019-03-10T07:59:15.652Z,52.78
2019-03-10T08:00:15.556Z,52.31
2019-03-10T08:01:15.498Z,51.64
2019-03-10T08:02:15.443Z,51.45
2019-03-10T08:03:15.393Z,50.70
2019-03-10T08:04:15.387Z,50.79
2019-03-10T08:05:15.271Z,50.60
2019-03-10T08:06:15.217Z,50.70
2019-03-10T08:07:15.160Z,50.03
2019-03-10T08:08:15.113Z,50.12
2019-03-10T08:09:15.078Z,50.60
2019-03-10T08:10:14.997Z,49.74
2019-03-10T08:11:14.938Z,49.74
2019-03-10T08:12:14.880Z,49.55
2019-03-10T08:13:14.819Z,49.55
2019-03-10T08:14:14.806Z,49.46
2019-03-10T08:15:14.714Z,49.20
2019-03-10T08:16:14.657Z,48.70
2019-03-10T08:17:14.597Z,48.22
2019-03-10T08:18:14.542Z,48.35
2019-03-10T08:19:14.539Z,48.22
2019-03-10T08:20:14.433Z,48.16
2019-03-10T08:21:14.408Z,48.22
2019-03-10T08:22:14.326Z,48.06
2019-03-10T08:23:14.273Z,48.16
2019-03-10T08:24:14.204Z,48.06
2019-03-10T08:25:14.146Z,48.16
2019-03-10T08:26:14.119Z,48.61
2019-03-10T08:27:14.067Z,48.35
2019-03-10T08:28:13.994Z,48.51
2019-03-10T08:29:13.920Z,47.18
2019-03-10T08:30:13.891Z,46.99
2019-03-10T08:31:13.842Z,47.02
2019-03-10T08:32:13.785Z,47.11
2019-03-10T08:33:13.694Z,47.11
2019-03-10T08:34:13.637Z,47.39
2019-03-10T08:35:13.605Z,47.39
2019-03-10T08:36:13.937Z,47.68
2019-03-10T08:37:13.472Z,47.49
2019-03-10T08:38:13.451Z,47.58
2019-03-10T08:39:13.357Z,47.11
2019-03-10T08:40:13.301Z,47.11
2019-03-10T08:41:13.291Z,47.11
2019-03-10T08:42:20.187Z,47.02
2019-03-10T08:43:13.130Z,47.11
2019-03-10T08:44:13.073Z,47.30
2019-03-10T08:45:13.018Z,47.20
2019-03-10T08:46:13.000Z,47.20
2019-03-10T08:47:12.905Z,47.11
2019-03-10T08:48:12.850Z,47.30
2019-03-10T08:49:12.801Z,47.30
2019-03-10T08:50:12.735Z,46.92
2019-03-10T08:51:12.713Z,46.45
2019-03-10T08:52:12.622Z,46.92
2019-03-10T08:53:12.784Z,46.92
2019-03-10T08:54:12.512Z,46.73
2019-03-10T08:55:12.452Z,47.20
2019-03-10T08:56:12.422Z,46.92
2019-03-10T08:57:12.342Z,46.64
2019-03-10T08:58:12.284Z,46.35
2019-03-10T08:59:12.233Z,46.45
2019-03-10T09:00:12.173Z,46.35
2019-03-10T09:01:12.148Z,45.87
2019-03-10T09:02:12.060Z,45.78
2019-03-10T09:03:12.003Z,45.40
2019-03-10T09:04:11.948Z,45.87
2019-03-10T09:05:11.923Z,45.02
2019-03-10T09:06:11.875Z,45.68
2019-03-10T09:07:11.784Z,46.16
2019-03-10T09:08:11.722Z,45.78
2019-03-10T09:09:11.678Z,45.78
2019-03-10T09:10:11.609Z,45.68
2019-03-10T09:11:11.593Z,45.97
2019-03-10T09:12:11.496Z,45.40
2019-03-10T09:13:11.441Z,45.04
2019-03-10T09:14:11.417Z,45.02
2019-03-10T09:15:11.373Z,45.14
2019-03-10T09:16:11.273Z,44.95
2019-03-10T09:17:11.218Z,44.95
2019-03-10T09:18:11.194Z,44.76
2019-03-10T09:19:11.101Z,44.38
2019-03-10T09:20:11.048Z,44.19
2019-03-10T09:21:10.993Z,43.80
2019-03-10T09:22:10.936Z,43.62
2019-03-10T09:23:10.932Z,44.09
2019-03-10T09:24:10.829Z,43.52
2019-03-10T09:25:10.773Z,43.43
2019-03-10T09:26:10.709Z,43.62
2019-03-10T09:27:10.663Z,43.43
2019-03-10T09:28:10.652Z,43.24
2019-03-10T09:29:10.543Z,43.52
2019-03-10T09:30:10.494Z,43.43
2019-03-10T09:31:10.431Z,43.14
2019-03-10T09:32:10.377Z,43.33
2019-03-10T09:33:10.374Z,43.52
2019-03-10T09:34:10.263Z,43.62
2019-03-10T09:35:10.213Z,44.09
2019-03-10T09:36:10.151Z,44.76
2019-03-10T09:37:10.097Z,44.09
2019-03-10T09:38:10.673Z,43.26
2019-03-10T09:39:09.990Z,43.54
2019-03-10T09:40:09.993Z,43.90
2019-03-10T09:41:09.890Z,43.54
2019-03-10T09:42:09.848Z,42.60
2019-03-10T09:43:09.890Z,43.45
2019-03-10T09:44:09.712Z,42.79
2019-03-10T09:45:09.653Z,43.64
2019-03-10T09:46:09.596Z,42.21
2019-03-10T09:47:09.540Z,42.50
2019-03-10T09:48:09.534Z,42.50
2019-03-10T09:49:09.429Z,42.12
2019-03-10T09:50:09.381Z,42.31
2019-03-10T09:51:09.321Z,42.69
2019-03-10T09:52:09.268Z,42.21
2019-03-10T09:53:09.240Z,42.04
2019-03-10T09:54:09.195Z,41.38
2019-03-10T09:55:09.109Z,41.38
2019-03-10T09:56:09.089Z,40.81
2019-03-10T09:57:08.996Z,41.38
2019-03-10T09:58:08.931Z,41.47
2019-03-10T09:59:08.881Z,41.38
2019-03-10T10:00:08.829Z,41.28
2019-03-10T10:01:08.907Z,41.78
2019-03-10T10:02:08.722Z,42.44
2019-03-10T10:03:08.660Z,43.40
2019-03-10T10:04:08.602Z,44.06
2019-03-10T10:05:08.551Z,44.64
2019-03-10T10:06:08.546Z,44.92
2019-03-10T10:07:08.441Z,44.54
2019-03-10T10:08:08.389Z,44.64
2019-03-10T10:09:08.331Z,45.11
2019-03-10T10:10:08.277Z,45.01
2019-03-10T10:11:08.255Z,44.06
2019-03-10T10:12:13.367Z,44.45
2019-03-10T10:13:08.119Z,43.78
2019-03-10T10:14:08.062Z,43.30
2019-03-10T10:15:08.005Z,43.40
2019-03-10T10:16:07.954Z,43.11
2019-03-10T10:17:07.936Z,42.92
2019-03-10T10:18:07.837Z,42.54
2019-03-10T10:19:07.786Z,42.66
2019-03-10T10:20:07.738Z,43.71
2019-03-10T10:21:07.686Z,44.37
2019-03-10T10:22:07.657Z,45.14
2019-03-10T10:23:07.627Z,44.56
2019-03-10T10:24:07.516Z,45.04
2019-03-10T10:25:07.461Z,45.14
2019-03-10T10:26:07.417Z,44.46
2019-03-10T10:27:07.389Z,45.51
2019-03-10T10:28:08.185Z,46.94
2019-03-10T10:29:07.244Z,46.94
2019-03-10T10:30:07.213Z,48.47
2019-03-10T10:31:07.169Z,48.56
2019-03-10T10:32:07.088Z,48.27
2019-03-10T10:33:07.039Z,48.49
2019-03-10T10:34:07.012Z,47.71
2019-03-10T10:35:06.923Z,47.61
2019-03-10T10:36:06.869Z,47.99
2019-03-10T10:37:06.812Z,47.32
2019-03-10T10:38:06.760Z,46.84
2019-03-10T10:39:06.736Z,48.47
2019-03-10T10:40:06.654Z,47.73
2019-03-10T10:41:06.595Z,47.42
2019-03-10T10:42:06.585Z,51.25
2019-03-10T10:43:06.491Z,54.94
2019-03-10T10:44:06.442Z,55.70
2019-03-10T10:45:06.407Z,58.65
2019-03-10T10:46:06.336Z,59.64
2019-03-10T10:47:06.277Z,55.63
2019-03-10T10:48:06.223Z,54.56
2019-03-10T10:49:06.170Z,55.80
2019-03-10T10:50:06.151Z,54.94
2019-03-10T10:51:06.064Z,55.99
2019-03-10T10:52:06.007Z,53.70
2019-03-10T10:53:05.952Z,53.61
2019-03-10T10:54:05.897Z,52.47
2019-03-10T10:55:05.907Z,51.04
2019-03-10T10:56:05.809Z,54.94
2019-03-10T10:57:05.788Z,61.90
2019-03-10T10:58:05.715Z,62.08
2019-03-10T10:59:05.630Z,58.75
2019-03-10T11:00:05.610Z,57.32
2019-03-10T11:01:05.581Z,59.32
2019-03-10T11:02:05.472Z,60.66
2019-03-10T11:03:05.421Z,58.56
2019-03-10T11:04:05.365Z,56.65
2019-03-10T11:05:05.309Z,58.75
2019-03-10T11:06:05.296Z,65.89
2019-03-10T11:07:05.204Z,65.45
2019-03-10T11:08:05.149Z,62.81
2019-03-10T11:09:05.096Z,55.88
2019-03-10T11:10:05.039Z,61.80
2019-03-10T11:11:05.042Z,57.63
2019-03-10T11:12:04.936Z,65.64
2019-03-10T11:13:04.888Z,56.04
2019-03-10T11:14:04.830Z,61.00
2019-03-10T11:15:04.778Z,63.80
2019-03-10T11:16:04.787Z,71.82
2019-03-10T11:17:04.672Z,84.47
2019-03-10T11:18:09.303Z,80.55
2019-03-10T11:19:04.572Z,79.41
2019-03-10T11:20:04.528Z,74.82
2019-03-10T11:21:04.499Z,69.21
2019-03-10T11:22:04.411Z,80.50
2019-03-10T11:23:04.363Z,96.18
2019-03-10T11:24:04.310Z,96.37
2019-03-10T11:25:04.291Z,99.99
2019-03-10T11:26:04.209Z,96.37
2019-03-10T11:27:04.170Z,99.99
2019-03-10T11:28:04.111Z,90.44
2019-03-10T11:29:04.262Z,96.18
2019-03-10T11:30:04.039Z,90.92
2019-03-10T11:31:04.030Z,99.99
2019-03-10T11:32:03.940Z,99.99
2019-03-10T11:33:03.852Z,95.46
2019-03-10T11:34:03.818Z,99.62
2019-03-10T11:35:03.756Z,93.12
2019-03-10T11:36:03.738Z,99.99
2019-03-10T11:37:03.657Z,97.66
2019-03-10T11:38:03.604Z,99.99
2019-03-10T11:39:03.584Z,95.94
2019-03-10T11:40:03.502Z,93.26
2019-03-10T11:41:03.449Z,91.74
2019-03-10T11:42:03.413Z,95.56
2019-03-10T11:43:03.354Z,89.54
2019-03-10T11:44:03.341Z,93.31
2019-03-10T11:45:03.246Z,93.12
2019-03-10T11:46:03.235Z,90.17
2019-03-10T11:47:03.145Z,96.46
2019-03-10T11:48:03.104Z,93.65
2019-03-10T11:49:03.044Z,86.49
2019-03-10T11:50:02.996Z,84.69
2019-03-10T11:51:03.068Z,82.40
2019-03-10T11:52:02.891Z,92.98
2019-03-10T11:53:02.839Z,85.93
2019-03-10T11:54:02.791Z,82.30
2019-03-10T11:55:02.762Z,81.06
2019-03-10T11:56:02.721Z,91.93
2019-03-10T11:57:02.651Z,87.16
2019-03-10T11:58:02.586Z,89.26
2019-03-10T11:59:02.540Z,95.27
2019-03-10T12:00:02.482Z,93.08
2019-03-10T12:01:02.465Z,86.78
2019-03-10T12:02:02.386Z,76.62
2019-03-10T12:03:02.340Z,88.45
2019-03-10T12:04:02.284Z,93.55
2019-03-10T12:05:02.262Z,86.30
2019-03-10T12:06:02.175Z,92.50
2019-03-10T12:07:02.156Z,90.97
2019-03-10T12:08:02.078Z,99.99
2019-03-10T12:09:02.025Z,93.46
2019-03-10T12:10:01.971Z,94.12
2019-03-10T12:11:01.961Z,93.07
2019-03-10T12:12:01.870Z,89.45
2019-03-10T12:13:01.816Z,95.84
2019-03-10T12:14:01.778Z,86.68
2019-03-10T12:15:01.725Z,93.46
2019-03-10T12:16:01.707Z,99.99
2019-03-10T12:17:01.617Z,99.28
2019-03-10T12:18:01.563Z,99.99
2019-03-10T12:19:01.520Z,94.98
2019-03-10T12:20:01.468Z,99.99
2019-03-10T12:21:01.441Z,99.99
2019-03-10T12:22:01.360Z,98.57
2019-03-10T12:23:01.372Z,92.64
2019-03-10T12:24:01.259Z,99.99
2019-03-10T12:25:01.243Z,99.99
2019-03-10T12:26:01.155Z,99.99
2019-03-10T12:27:01.108Z,99.99
2019-03-10T12:28:01.061Z,99.99
2019-03-10T12:29:01.006Z,99.99
2019-03-10T12:30:00.986Z,99.99
2019-03-10T12:31:00.908Z,99.99
2019-03-10T12:32:00.856Z,99.99
2019-03-10T12:33:00.814Z,99.99
2019-03-10T12:34:00.779Z,99.99
2019-03-10T12:35:00.740Z,99.99
2019-03-10T12:36:00.655Z,99.99
2019-03-10T12:37:00.606Z,99.99
2019-03-10T12:38:00.555Z,99.99
2019-03-10T12:39:00.536Z,99.99
2019-03-10T12:40:00.506Z,99.99
2019-03-10T12:41:00.409Z,99.99
2019-03-10T12:42:00.357Z,99.99
2019-03-10T12:43:00.308Z,99.99
2019-03-10T12:44:00.344Z,99.99
2019-03-10T12:45:00.487Z,99.99
2019-03-10T12:46:00.162Z,99.99
2019-03-10T12:47:00.116Z,99.99
2019-03-10T12:48:00.080Z,99.99
2019-03-10T12:49:00.013Z,99.99
2019-03-10T12:50:00.005Z,99.99
2019-03-10T12:50:59.917Z,99.99
2019-03-10T12:51:59.892Z,99.99